createdAt,value
2019-04-05T00:00:01.731Z,26.67
2019-04-05T00:05:06.303Z,22.33
2019-04-05T00:10:08.722Z,19.63
2019-04-05T00:15:15.525Z,25.67
2019-04-05T00:20:14.352Z,22.13
2019-04-05T00:25:15.837Z,26.70
2019-04-05T00:30:17.706Z,23.80
2019-04-05T00:35:19.372Z,23.97
2019-04-05T00:40:21.011Z,23.03
2019-04-05T00:45:28.286Z,22.70
2019-04-05T00:50:26.148Z,23.23
2019-04-05T00:55:27.626Z,22.50
2019-04-05T01:00:29.144Z,21.03
2019-04-05T01:05:30.728Z,22.60
2019-04-05T01:10:32.381Z,20.27
2019-04-05T01:15:40.829Z,26.30
2019-04-05T01:20:40.856Z,26.33
2019-04-05T01:25:43.259Z,23.53
2019-04-05T01:30:45.241Z,23.80
2019-04-05T01:35:46.711Z,18.87
2019-04-05T01:40:48.271Z,21.73
2019-04-05T01:45:54.015Z,25.43
2019-04-05T01:50:54.281Z,25.30
2019-04-05T01:55:55.752Z,23.10
2019-04-05T02:00:57.303Z,24.53
2019-04-05T02:05:59.046Z,23.63
2019-04-05T02:11:00.806Z,21.13
2019-04-05T02:16:06.752Z,22.90
2019-04-05T02:21:05.740Z,28.13
2019-04-05T02:26:07.402Z,24.93
2019-04-05T02:31:09.186Z,26.07
2019-04-05T02:36:10.664Z,26.83
2019-04-05T02:41:13.954Z,29.73
2019-04-05T02:46:23.785Z,23.63
2019-04-05T02:51:25.211Z,25.93
2019-04-05T02:56:30.484Z,26.07
2019-04-05T03:01:32.869Z,25.10
2019-04-05T03:06:34.645Z,26.97
2019-04-05T03:11:37.622Z,27.73
2019-04-05T03:16:44.399Z,23.87
2019-04-05T03:21:50.366Z,33.17
2019-04-05T03:26:57.565Z,29.33
2019-04-05T03:31:59.443Z,26.10
2019-04-05T03:37:01.219Z,23.83
2019-04-05T03:42:03.311Z,24.73
2019-04-05T03:47:05.779Z,28.80
2019-04-05T03:52:07.451Z,26.77
2019-04-05T03:57:09.531Z,28.77
2019-04-05T04:02:11.268Z,26.90
2019-04-05T04:07:13.090Z,27.37
2019-04-05T04:12:14.963Z,25.33
2019-04-05T04:17:16.828Z,29.53
2019-04-05T04:22:27.729Z,33.07
2019-04-05T04:27:29.936Z,34.30
2019-04-05T04:32:31.902Z,30.87
2019-04-05T04:37:33.472Z,32.10
2019-04-05T04:42:35.948Z,30.60
2019-04-05T04:47:38.580Z,30.87
2019-04-05T04:52:40.351Z,34.63
2019-04-05T04:57:42.381Z,31.37
2019-04-05T05:02:44.520Z,34.80
2019-04-05T05:07:46.787Z,28.63
2019-04-05T05:12:49.569Z,32.27
2019-04-05T05:17:58.411Z,34.67
2019-04-05T05:22:55.899Z,30.97
2019-04-05T05:27:57.978Z,30.53
2019-04-05T05:32:59.960Z,37.30
2019-04-05T05:38:01.740Z,38.33
2019-04-05T05:43:03.451Z,33.70
2019-04-05T05:48:05.318Z,43.00
2019-04-05T05:53:06.991Z,36.30
2019-04-05T05:58:08.466Z,35.27
2019-04-05T06:03:11.341Z,33.60
2019-04-05T06:08:13.334Z,34.97
2019-04-05T06:13:14.808Z,31.27
2019-04-05T06:18:16.261Z,29.53
2019-04-05T06:23:18.118Z,38.57
2019-04-05T06:28:19.598Z,35.03
2019-04-05T06:33:31.349Z,39.93
2019-04-05T06:38:24.562Z,39.63
2019-04-05T06:43:26.015Z,34.23
2019-04-05T06:48:29.369Z,32.03
2019-04-05T06:53:30.854Z,40.47
2019-04-05T06:58:32.308Z,35.47
2019-04-05T07:03:33.928Z,38.27
2019-04-05T07:08:35.398Z,29.23
2019-04-05T07:13:37.083Z,34.00
2019-04-05T07:18:38.542Z,34.67
2019-04-05T07:23:40.039Z,30.57
2019-04-05T07:28:41.503Z,34.07
2019-04-05T07:33:42.981Z,42.43
2019-04-05T07:38:44.459Z,36.30
2019-04-05T07:43:46.353Z,42.83
2019-04-05T07:48:47.881Z,43.63
2019-04-05T07:53:49.376Z,47.70
2019-04-05T07:58:51.163Z,57.60
2019-04-05T08:03:53.039Z,53.00
2019-04-05T08:09:05.706Z,59.60
2019-04-05T08:14:08.615Z,69.27
2019-04-05T08:19:10.091Z,75.60
2019-04-05T08:24:11.559Z,80.47
2019-04-05T08:29:13.414Z,85.73
2019-04-05T08:34:14.895Z,80.47
2019-04-05T08:39:16.722Z,80.53
2019-04-05T08:44:18.230Z,89.27
2019-04-05T08:49:19.626Z,91.00
2019-04-05T08:54:31.917Z,87.40
2019-04-05T08:59:24.943Z,93.13
2019-04-05T09:04:26.528Z,93.17
2019-04-05T09:09:28.020Z,89.53
2019-04-05T09:14:29.486Z,98.90
2019-04-05T09:19:31.251Z,108.33
2019-04-05T09:24:33.100Z,101.30
2019-04-05T09:29:34.576Z,105.67
2019-04-05T09:34:36.340Z,103.37
2019-04-05T09:39:37.833Z,93.47
2019-04-05T09:44:39.811Z,106.63
2019-04-05T09:49:41.768Z,98.43
2019-04-05T09:54:43.243Z,112.43
2019-04-05T09:59:45.110Z,102.77
2019-04-05T10:04:46.591Z,107.23
2019-04-05T10:09:50.442Z,105.70
2019-04-05T10:14:51.519Z,99.13
2019-04-05T10:19:53.106Z,106.83
2019-04-05T10:24:54.731Z,102.93
2019-04-05T10:29:56.206Z,98.87
2019-04-05T10:34:57.687Z,96.23
2019-04-05T10:39:59.614Z,99.17
2019-04-05T10:45:01.185Z,91.27
2019-04-05T10:50:06.733Z,93.93
2019-04-05T10:55:08.806Z,92.73
2019-04-05T11:00:14.858Z,88.63
2019-04-05T11:05:16.779Z,101.53
2019-04-05T11:10:18.963Z,92.97
2019-04-05T11:15:20.940Z,77.47
2019-04-05T11:20:22.725Z,84.23
2019-04-05T11:25:24.695Z,82.47
2019-04-05T11:30:42.142Z,83.80
2019-04-05T11:35:43.792Z,89.53
2019-04-05T11:40:46.145Z,87.73
2019-04-05T11:45:48.556Z,87.80
2019-04-05T11:50:51.793Z,82.80
2019-04-05T11:55:53.249Z,79.03
2019-04-05T12:01:11.752Z,81.40
2019-04-05T12:06:13.226Z,74.60
2019-04-05T12:11:15.058Z,73.90
2019-04-05T12:16:16.935Z,72.30
2019-04-05T12:21:20.772Z,77.33
2019-04-05T12:26:22.074Z,68.87
2019-04-05T12:31:25.614Z,73.00
2019-04-05T12:36:27.136Z,72.23
2019-04-05T12:41:28.618Z,63.80
2019-04-05T12:46:30.094Z,68.77
2019-04-05T12:51:31.842Z,65.57
2019-04-05T12:56:33.315Z,63.73
2019-04-05T13:01:34.909Z,57.93
2019-04-05T13:06:36.714Z,62.67
2019-04-05T13:11:38.274Z,59.27
2019-04-05T13:16:39.748Z,63.30
2019-04-05T13:21:41.229Z,62.03
2019-04-05T13:26:42.849Z,62.00
2019-04-05T13:31:44.368Z,61.10
2019-04-05T13:36:45.947Z,57.43
2019-04-05T13:41:47.419Z,55.57
2019-04-05T13:46:48.917Z,54.30
2019-04-05T13:51:50.501Z,58.20
2019-04-05T13:56:51.968Z,57.63
2019-04-05T14:02:05.630Z,65.27
2019-04-05T14:06:57.344Z,59.83
2019-04-05T14:11:59.466Z,55.53
2019-04-05T14:17:00.945Z,65.27
2019-04-05T14:22:08.227Z,56.40
2019-04-05T14:27:05.979Z,51.73
2019-04-05T14:32:20.341Z,50.57
2019-04-05T14:37:10.933Z,55.67
2019-04-05T14:42:14.804Z,55.97
2019-04-05T14:47:16.222Z,55.00
2019-04-05T14:52:17.701Z,58.80
2019-04-05T14:57:19.435Z,57.00
2019-04-05T15:02:21.301Z,57.80
2019-04-05T15:07:22.774Z,57.67
2019-04-05T15:12:24.266Z,55.37
2019-04-05T15:17:25.755Z,60.60
2019-04-05T15:22:27.788Z,68.53
2019-04-05T15:27:29.640Z,67.47
2019-04-05T15:32:32.720Z,64.13
2019-04-05T15:37:37.209Z,59.63
2019-04-05T15:42:37.726Z,73.87
2019-04-05T15:47:39.195Z,68.50
2019-04-05T15:52:40.667Z,70.13
2019-04-05T15:57:42.547Z,71.57
2019-04-05T16:02:44.536Z,75.60
2019-04-05T16:07:46.036Z,74.77
2019-04-05T16:12:47.546Z,73.00
2019-04-05T16:17:49.020Z,73.40
2019-04-05T16:22:50.802Z,76.37
2019-04-05T16:27:52.580Z,72.40
2019-04-05T16:32:54.345Z,76.73
2019-04-05T16:37:55.822Z,72.60
2019-04-05T16:43:02.714Z,76.13
2019-04-05T16:48:01.417Z,79.70
2019-04-05T16:53:02.945Z,75.70
2019-04-05T16:58:04.452Z,82.60
2019-04-05T17:03:06.525Z,78.17
2019-04-05T17:08:08.009Z,80.40
2019-04-05T17:13:09.654Z,81.50
2019-04-05T17:18:11.652Z,84.80
2019-04-05T17:23:13.117Z,74.77
2019-04-05T17:28:14.663Z,89.10
2019-04-05T17:33:16.812Z,80.70
2019-04-05T17:38:18.738Z,76.07
2019-04-05T17:43:20.464Z,78.13
2019-04-05T17:48:22.050Z,75.27
2019-04-05T17:53:23.854Z,77.53
2019-04-05T17:58:28.015Z,74.30
2019-04-05T18:03:29.946Z,85.53
2019-04-05T18:08:31.551Z,81.90
2019-04-05T18:13:33.412Z,80.17
2019-04-05T18:18:35.314Z,80.17
2019-04-05T18:23:37.104Z,83.53
2019-04-05T18:28:38.858Z,77.97
2019-04-05T18:33:40.812Z,74.10
2019-04-05T18:38:42.686Z,79.23
2019-04-05T18:43:44.209Z,86.10
2019-04-05T18:48:45.771Z,75.23
2019-04-05T18:53:47.487Z,79.83
2019-04-05T18:58:49.002Z,75.10
2019-04-05T19:03:50.575Z,78.43
2019-04-05T19:08:52.553Z,79.80
2019-04-05T19:14:01.060Z,77.03
2019-04-05T19:18:57.571Z,79.50
2019-04-05T19:23:59.269Z,78.87
2019-04-05T19:29:01.145Z,78.73
2019-04-05T19:49:13.358Z,75.63
2019-04-05T19:54:14.779Z,79.53
2019-04-05T19:59:16.252Z,66.07
2019-04-05T20:04:17.835Z,65.63
2019-04-05T20:09:21.006Z,67.23
2019-04-05T20:14:22.579Z,70.33
2019-04-05T20:19:24.557Z,68.07
2019-04-05T20:24:26.953Z,71.93
2019-04-05T20:29:28.511Z,69.77
2019-04-05T20:34:30.079Z,72.73
2019-04-05T20:39:31.655Z,70.50
2019-04-05T20:44:33.486Z,62.50
2019-04-05T20:49:35.284Z,67.70
2019-04-05T20:54:36.872Z,73.10
2019-04-05T20:59:38.356Z,66.43
2019-04-05T21:04:40.270Z,74.10
2019-04-05T21:09:42.264Z,66.97
2019-04-05T21:14:43.858Z,67.83
2019-04-05T21:19:45.702Z,70.33
2019-04-05T21:24:47.471Z,63.87
2019-04-05T21:29:49.067Z,63.53
2019-04-05T21:34:50.659Z,64.43
2019-04-05T21:39:52.198Z,67.10
2019-04-05T21:44:53.668Z,63.90
2019-04-05T21:49:55.659Z,62.77
2019-04-05T21:54:57.189Z,60.40
2019-04-05T21:59:58.663Z,60.83
2019-04-05T22:05:01.391Z,53.20
2019-04-05T22:10:05.197Z,52.73
2019-04-05T22:15:07.456Z,53.73
2019-04-05T22:20:09.119Z,55.00
2019-04-05T22:25:10.688Z,56.57
2019-04-05T22:30:12.295Z,53.60
2019-04-05T22:35:13.767Z,48.50
2019-04-05T22:40:15.243Z,52.87
2019-04-05T22:45:17.075Z,51.30
2019-04-05T22:50:18.950Z,45.97
2019-04-05T22:55:20.422Z,50.57
2019-04-05T23:00:22.599Z,52.13
2019-04-05T23:05:24.057Z,50.67
2019-04-05T23:10:25.878Z,45.43
2019-04-05T23:15:27.439Z,46.77
2019-04-05T23:20:28.912Z,42.40
2019-04-05T23:25:30.367Z,43.00
2019-04-05T23:30:32.748Z,42.83
2019-04-05T23:35:34.219Z,44.30
2019-04-05T23:40:35.799Z,44.57
2019-04-05T23:45:37.291Z,42.63
2019-04-05T23:50:39.206Z,40.23
2019-04-05T23:55:40.996Z,39.63
